createdAt,value
2019-02-25T00:03:09.689Z,55.50
2019-02-25T00:08:05.669Z,55.00
2019-02-25T00:13:01.519Z,54.80
2019-02-25T00:17:57.487Z,55.10
2019-02-25T00:22:53.643Z,55.40
2019-02-25T00:27:50.729Z,55.30
2019-02-25T00:32:47.585Z,55.60
2019-02-25T00:37:43.416Z,56.30
2019-02-25T00:42:39.373Z,56.90
2019-02-25T00:47:35.183Z,57.00
2019-02-25T00:52:31.110Z,56.80
2019-02-25T00:57:28.271Z,56.90
2019-02-25T01:02:25.610Z,57.00
2019-02-25T01:07:21.622Z,57.70
2019-02-25T01:12:17.600Z,59.60
2019-02-25T01:17:13.785Z,60.20
2019-02-25T01:22:09.729Z,61.40
2019-02-25T01:27:05.960Z,62.00
2019-02-25T01:32:01.863Z,63.00
2019-02-25T01:36:57.904Z,64.10
2019-02-25T01:41:53.741Z,63.80
2019-02-25T01:46:50.704Z,63.40
2019-02-25T01:51:46.787Z,63.90
2019-02-25T01:56:42.838Z,64.40
2019-02-25T02:01:38.539Z,64.30
2019-02-25T02:06:34.372Z,64.40
2019-02-25T02:11:30.350Z,65.30
2019-02-25T02:16:26.131Z,66.90
2019-02-25T02:21:21.831Z,67.90
2019-02-25T02:26:17.600Z,69.40
2019-02-25T02:31:13.693Z,70.60
2019-02-25T02:36:11.723Z,71.50
2019-02-25T02:41:08.967Z,72.00
2019-02-25T02:46:50.557Z,72.90
2019-02-25T02:51:46.553Z,73.10
2019-02-25T02:56:42.364Z,73.80
2019-02-25T03:01:38.359Z,74.80
2019-02-25T03:06:34.299Z,75.50
2019-02-25T03:11:31.254Z,75.10
2019-02-25T03:16:27.097Z,75.50
2019-02-25T03:21:22.968Z,75.70
2019-02-25T03:26:18.805Z,76.70
2019-02-25T03:31:14.585Z,76.90
2019-02-25T03:36:10.534Z,77.80
2019-02-25T03:41:07.636Z,77.80
2019-02-25T03:46:03.591Z,77.90
2019-02-25T03:50:59.464Z,78.10
2019-02-25T03:55:55.346Z,78.30
2019-02-25T04:00:51.060Z,78.50
2019-02-25T04:05:47.168Z,78.60
2019-02-25T04:10:43.044Z,78.70
2019-02-25T04:15:42.059Z,78.90
2019-02-25T04:20:37.910Z,79.00
2019-02-25T04:25:33.885Z,79.60
2019-02-25T04:30:29.668Z,81.40
2019-02-25T04:35:25.460Z,83.10
2019-02-25T04:40:21.362Z,83.90
2019-02-25T04:45:20.447Z,85.10
2019-02-25T04:50:16.621Z,85.90
2019-02-25T04:55:12.657Z,86.70
2019-02-25T05:00:14.846Z,87.70
2019-02-25T05:05:13.208Z,88.80
2019-02-25T05:10:10.766Z,89.20
2019-02-25T05:15:07.419Z,89.60
2019-02-25T05:20:07.464Z,91.40
2019-02-25T05:25:03.310Z,91.30
2019-02-25T05:29:59.060Z,91.90
2019-02-25T05:34:54.887Z,91.90
2019-02-25T05:39:50.560Z,92.80
2019-02-25T05:44:46.290Z,93.30
2019-02-25T05:49:41.959Z,93.40
2019-02-25T05:54:37.909Z,93.50
2019-02-25T05:59:35.254Z,94.00
2019-02-25T06:04:30.948Z,94.10
2019-02-25T06:09:26.771Z,94.40
2019-02-25T06:14:23.555Z,94.20
2019-02-25T06:19:19.388Z,94.10
2019-02-25T06:24:15.142Z,94.40
2019-02-25T06:29:10.853Z,94.80
2019-02-25T06:34:06.522Z,95.00
2019-02-25T06:39:06.091Z,94.80
2019-02-25T06:44:07.228Z,94.40
2019-02-25T06:49:04.426Z,93.80
2019-02-25T06:54:01.224Z,93.60
2019-02-25T06:58:56.906Z,92.80
2019-02-25T07:04:25.437Z,92.80
2019-02-25T07:09:30.283Z,93.10
2019-02-25T07:14:37.561Z,93.20
2019-02-25T07:20:01.400Z,92.90
2019-02-25T07:25:05.889Z,93.00
2019-02-25T07:30:23.676Z,93.40
2019-02-25T07:35:37.060Z,93.50
2019-02-25T07:41:06.412Z,93.80
2019-02-25T07:46:20.676Z,94.00
2019-02-25T07:51:33.571Z,94.20
2019-02-25T07:56:43.251Z,94.50
2019-02-25T08:02:00.676Z,94.30
2019-02-25T08:07:18.217Z,93.30
2019-02-25T08:12:19.298Z,92.90
2019-02-25T08:17:40.005Z,92.50
2019-02-25T08:22:57.984Z,92.00
2019-02-25T08:28:11.983Z,92.10
2019-02-25T08:33:29.352Z,91.50
2019-02-25T08:38:43.824Z,90.50
2019-02-25T08:43:47.771Z,89.00
2019-02-25T08:48:56.221Z,88.20
2019-02-25T08:53:52.085Z,88.10
2019-02-25T08:58:48.459Z,86.00
2019-02-25T09:03:44.304Z,86.50
2019-02-25T09:08:40.118Z,86.60
2019-02-25T09:13:36.214Z,85.20
2019-02-25T09:18:32.803Z,83.60
2019-02-25T09:23:28.940Z,83.30
2019-02-25T09:28:24.747Z,81.30
2019-02-25T09:33:22.787Z,80.60
2019-02-25T09:38:18.785Z,80.50
2019-02-25T09:43:14.561Z,80.80
2019-02-25T09:48:10.448Z,79.70
2019-02-25T09:53:07.351Z,79.90
2019-02-25T09:58:03.633Z,79.00
2019-02-25T10:02:59.441Z,79.00
2019-02-25T10:07:55.365Z,78.90
2019-02-25T10:12:51.313Z,78.30
2019-02-25T10:17:47.143Z,78.00
2019-02-25T10:22:43.099Z,78.50
2019-02-25T10:27:37.073Z,78.20
2019-02-25T10:32:32.956Z,77.90
2019-02-25T10:37:28.823Z,76.50
2019-02-25T10:42:24.592Z,75.60
2019-02-25T10:47:21.446Z,72.30
2019-02-25T10:52:17.433Z,68.90
2019-02-25T10:57:17.139Z,66.40
2019-02-25T11:02:13.697Z,65.40
2019-02-25T11:07:10.743Z,66.30
2019-02-25T11:12:07.579Z,65.80
2019-02-25T11:17:03.522Z,66.10
2019-02-25T11:21:59.451Z,65.80
2019-02-25T11:26:56.983Z,65.00
2019-02-25T11:31:53.562Z,63.20
2019-02-25T11:36:52.210Z,63.50
2019-02-25T11:41:47.889Z,63.20
2019-02-25T11:46:43.689Z,63.10
2019-02-25T11:51:39.987Z,61.60
2019-02-25T11:56:35.856Z,59.80
2019-02-25T12:01:33.625Z,57.80
2019-02-25T12:06:30.876Z,56.40
2019-02-25T12:11:26.660Z,54.90
2019-02-25T12:16:22.492Z,50.20
2019-02-25T12:21:18.246Z,47.30
2019-02-25T12:26:12.292Z,45.00
2019-02-25T12:31:08.189Z,44.50
2019-02-25T12:36:03.911Z,42.20
2019-02-25T12:40:59.635Z,41.90
2019-02-25T12:45:56.408Z,41.50
2019-02-25T12:50:52.108Z,40.70
2019-02-25T12:55:48.078Z,41.70
2019-02-25T13:00:43.747Z,42.80
2019-02-25T13:05:39.657Z,42.50
2019-02-25T13:10:35.450Z,40.60
2019-02-25T13:15:31.298Z,40.10
2019-02-25T13:20:26.914Z,41.30
2019-02-25T13:25:22.710Z,42.10
2019-02-25T13:30:18.760Z,43.10
2019-02-25T13:35:14.548Z,43.20
2019-02-25T13:40:10.890Z,43.80
2019-02-25T13:45:07.393Z,44.50
2019-02-25T13:50:07.225Z,44.70
2019-02-25T13:55:14.878Z,45.20
2019-02-25T14:00:20.544Z,44.10
2019-02-25T14:05:16.587Z,43.60
2019-02-25T14:10:12.877Z,42.40
2019-02-25T14:15:09.385Z,41.70
2019-02-25T14:20:09.669Z,41.50
2019-02-25T14:25:06.681Z,42.90
2019-02-25T14:30:02.425Z,44.10
2019-02-25T14:34:58.554Z,43.00
2019-02-25T14:39:56.330Z,42.20
2019-02-25T14:44:52.280Z,41.00
2019-02-25T14:49:49.294Z,43.10
2019-02-25T14:54:45.861Z,45.40
2019-02-25T14:59:42.861Z,46.70
2019-02-25T15:04:39.703Z,46.60
2019-02-25T15:09:37.129Z,46.30
2019-02-25T15:14:36.766Z,41.80
2019-02-25T15:19:34.417Z,43.30
2019-02-25T15:24:31.086Z,46.20
2019-02-25T15:29:26.843Z,47.50
2019-02-25T15:34:22.960Z,48.70
2019-02-25T15:39:18.810Z,49.50
2019-02-25T15:44:14.587Z,49.90
2019-02-25T15:49:12.840Z,50.60
2019-02-25T15:54:10.118Z,50.90
2019-02-25T15:59:05.934Z,51.50
2019-02-25T16:04:02.926Z,52.20
2019-02-25T16:09:00.850Z,52.30
2019-02-25T16:14:00.100Z,53.00
2019-02-25T16:18:56.049Z,54.10
2019-02-25T16:23:51.967Z,55.40
2019-02-25T16:28:47.804Z,57.00
2019-02-25T16:33:43.683Z,58.60
2019-02-25T16:38:39.462Z,60.00
2019-02-25T16:43:35.447Z,61.50
2019-02-25T16:48:32.647Z,63.30
2019-02-25T16:53:30.045Z,65.90
2019-02-25T16:58:27.611Z,68.00
2019-02-25T17:03:23.850Z,70.80
2019-02-25T17:08:20.872Z,72.50
2019-02-25T17:13:17.139Z,75.20
2019-02-25T17:18:15.188Z,76.90
2019-02-25T17:23:10.779Z,78.60
2019-02-25T17:28:08.202Z,80.90
2019-02-25T17:33:15.671Z,82.00
2019-02-25T17:38:11.655Z,82.70
2019-02-25T17:43:09.092Z,84.20
2019-02-25T17:48:08.483Z,86.10
2019-02-25T17:53:07.439Z,87.30
2019-02-25T17:58:08.042Z,88.60
2019-02-25T18:03:04.265Z,89.00
2019-02-25T18:08:02.804Z,89.70
2019-02-25T18:12:59.048Z,90.70
2019-02-25T18:17:57.672Z,90.90
2019-02-25T18:22:55.972Z,91.40
2019-02-25T18:27:51.964Z,91.70
2019-02-25T18:32:48.343Z,92.20
2019-02-25T18:37:45.556Z,93.00
2019-02-25T18:42:43.183Z,93.40
2019-02-25T18:47:40.663Z,93.80
2019-02-25T18:52:38.454Z,93.50
2019-02-25T18:57:34.665Z,93.50
2019-02-25T19:02:31.397Z,94.40
2019-02-25T19:07:29.335Z,94.70
2019-02-25T19:12:26.266Z,94.60
2019-02-25T19:17:23.163Z,94.90
2019-02-25T19:22:21.329Z,95.70
2019-02-25T19:27:25.021Z,96.30
2019-02-25T19:32:22.942Z,97.20
2019-02-25T19:37:18.860Z,97.30
2019-02-25T19:42:15.389Z,96.80
2019-02-25T19:47:14.342Z,96.60
2019-02-25T19:52:12.002Z,97.00
2019-02-25T19:57:07.790Z,97.30
2019-02-25T20:02:06.776Z,97.40
2019-02-25T20:07:02.904Z,98.10
2019-02-25T20:12:01.285Z,98.70
2019-02-25T20:17:02.567Z,99.10
2019-02-25T20:21:58.025Z,99.30
2019-02-25T20:26:57.620Z,99.30
2019-02-25T20:31:52.230Z,99.30
2019-02-25T20:36:50.448Z,99.60
2019-02-25T20:41:49.858Z,99.90
2019-02-25T20:46:44.474Z,99.90
2019-02-25T20:51:40.335Z,99.90
2019-02-25T20:56:36.608Z,99.90
2019-02-25T21:01:35.235Z,99.90
2019-02-25T21:06:30.003Z,99.90
2019-02-25T21:11:27.269Z,99.90
2019-02-25T21:16:26.232Z,99.90
2019-02-25T21:21:21.732Z,99.90
2019-02-25T21:26:17.561Z,99.90
2019-02-25T21:31:14.577Z,99.90
2019-02-25T21:36:10.803Z,99.90
2019-02-25T21:41:07.490Z,99.90
2019-02-25T21:46:04.461Z,99.90
2019-02-25T21:51:02.474Z,99.90
2019-02-25T21:56:02.368Z,99.90
2019-02-25T22:00:59.093Z,99.90
2019-02-25T22:05:56.197Z,99.90
2019-02-25T22:10:58.222Z,99.90
2019-02-25T22:15:54.331Z,99.90
2019-02-25T22:20:51.440Z,99.90
2019-02-25T22:25:48.744Z,99.90
2019-02-25T22:30:45.190Z,99.90
2019-02-25T22:35:42.953Z,99.90
2019-02-25T22:40:39.886Z,99.90
2019-02-25T22:45:37.549Z,99.90
2019-02-25T22:50:35.668Z,99.90
2019-02-25T22:55:31.468Z,99.90
2019-02-25T23:00:42.200Z,99.90
2019-02-25T23:05:40.928Z,99.90
2019-02-25T23:10:38.109Z,99.90
2019-02-25T23:15:33.787Z,99.90
2019-02-25T23:20:31.665Z,99.90
2019-02-25T23:25:27.222Z,99.90
2019-02-25T23:30:24.363Z,99.90
2019-02-25T23:35:20.849Z,99.90
2019-02-25T23:40:17.730Z,99.90
2019-02-25T23:45:15.537Z,99.90
2019-02-25T23:50:13.537Z,99.90
2019-02-25T23:55:12.205Z,99.90
